FMMI/TNR METAR and TAF weather

Enter ICAO airport designator
Station Type Date Time Source
FMMI METAR 2018/06/25 02:00 UTC NOAA

FMMI 250200Z 06003KT 9999 FEW020 12/11 Q1023 NOSIG


Station Type Date Time Source
FMMI Decoded METAR 2018/06/25 02:00 UTC NOAA

Antananarivo / Ivato, Madagascar (FMMI) 18-48S 047-29E 1276M
Jun 24, 2018 - 10:00 PM EDT / 2018.06.25 0200 UTC
Wind: from the ENE (060 degrees) at 3 MPH (3 KT):0
Visibility: greater than 7 mile(s):0
Sky conditions: mostly clear
Temperature: 53 F (12 C)
Dew Point: 51 F (11 C)
Relative Humidity: 93%
Pressure (altimeter): 30.21 in. Hg (1023 hPa)
ob: FMMI 250200Z 06003KT 9999 FEW020 12/11 Q1023 NOSIG
cycle: 2

Station Type Date Time Source
FMMI TAF 2018/06/24 18:05 UTC NOAA

TAF FMMI 241700Z 2418/2524 10007KT 9999 SCT007 BKN020


Example: see airport list